EGPN/DND METAR and TAF weather

Enter ICAO airport designator
Station Type Date Time Source
EGPN METAR 2021/03/05 15:50 UTC NOAA

EGPN 051550Z 24003KT 9999 FEW040 05/M02 Q1035


Station Type Date Time Source
EGPN Decoded METAR 2021/03/05 15:50 UTC NOAA

Dundee / Riverside, United Kingdom (EGPN) 56-27N 003-01W
Mar 05, 2021 - 10:50 AM EST / 2021.03.05 1550 UTC
Wind: from the WSW (240 degrees) at 3 MPH (3 KT):0
Visibility: greater than 7 mile(s):0
Sky conditions: mostly clear
Temperature: 41 F (5 C)
Dew Point: 28 F (-2 C)
Relative Humidity: 60%
Pressure (altimeter): 30.56 in. Hg (1035 hPa)
ob: EGPN 051550Z 24003KT 9999 FEW040 05/M02 Q1035
cycle: 16

Station Type Date Time Source
EGPN TAF 2019/01/15 18:56 UTC NOAA

TAF EGPN 151750Z 1518/1621 CNL

Example: see airport list